map of MAR home
MAR - Airport
Location
City:  Maracaibo, Zulia, Venezuela
Name:La Chinita
ICAO:SVMC
IATA:MAR

Details
Type:Airport (Aerodrome, Airfield)
Use:Public/Civil, Military, International (customs port of entry)
Latitude:1033'30"N (10.558208)
Longitude:7143'40"W (-71.727855)
Datum:WGS 1984
Elevation:235 ft (72 m)
Variation:9.67W (WMM2015 magnetic declination)
-0.12 annual change
Runways:2
Longest:9843 × 148 ft (3000 × 45 m), paved

Time
Time Zone:UTC-4
Local Time:

Weather
TAF:SVMC 190400Z 1906/2006 09006KT 9999 BKN016 TX34/19Z TN24/09Z
TEMPO 1906/1910 36001KT

Related Locations
Nearby:
Farthest:XCH: 12274 mi / 19753 km
Christmas Island, CX

Find:

   beyond  
but within

Other Information
Maps:
NOTAMs:
Links:
Sources:

  
  • flag of Venezuela
  

Sectional Chart

Flight Planning
at skyvector.com

Satellite Image

Google Maps Satellite view

 

Copyright © 2004-2018 Karl L. Swartz. All rights reserved.
The Great Circle Mapper name and logo are trademarks of the Great Circle Mapper.
All other trademarks mentioned herein belong to their respective owners.
Please see credits for attibutions and further copyright information.

  Follow gcmap on Facebook Follow gcmap on Twitter Follow gcmap on Google+ GCmap on LinkedIn

hCard Microformat

Geo Microformat